createdAt,value
2019-03-10T00:01:35.853Z,76.20
2019-03-10T00:04:04.073Z,76.30
2019-03-10T00:06:32.321Z,76.20
2019-03-10T00:09:00.610Z,76.10
2019-03-10T00:11:28.900Z,76.20
2019-03-10T00:13:57.134Z,76.40
2019-03-10T00:16:25.390Z,76.30
2019-03-10T00:18:53.620Z,76.60
2019-03-10T00:21:21.880Z,76.50
2019-03-10T00:23:50.108Z,76.30
2019-03-10T00:26:18.351Z,76.30
2019-03-10T00:28:46.584Z,76.10
2019-03-10T00:31:14.814Z,76.20
2019-03-10T00:33:43.073Z,76.20
2019-03-10T00:36:11.309Z,76.70
2019-03-10T00:38:45.663Z,76.70
2019-03-10T00:41:17.177Z,76.60
2019-03-10T00:44:23.548Z,76.80
2019-03-10T00:47:11.471Z,76.90
2019-03-10T00:50:08.821Z,76.90
2019-03-10T00:52:40.326Z,77.10
2019-03-10T00:55:08.568Z,77.50
2019-03-10T00:57:36.799Z,77.70
2019-03-10T01:00:08.298Z,77.70
2019-03-10T01:02:36.562Z,78.00
2019-03-10T01:05:06.238Z,77.90
2019-03-10T01:07:34.483Z,78.20
2019-03-10T01:10:02.735Z,78.50
2019-03-10T01:12:30.985Z,78.50
2019-03-10T01:14:59.222Z,78.90
2019-03-10T01:17:27.450Z,78.90
2019-03-10T01:19:55.736Z,79.20
2019-03-10T01:22:23.951Z,79.10
2019-03-10T01:24:52.175Z,79.30
2019-03-10T01:27:20.423Z,79.50
2019-03-10T01:29:48.657Z,79.80
2019-03-10T01:32:32.277Z,80.10
2019-03-10T01:35:09.829Z,80.20
2019-03-10T01:37:38.063Z,80.50
2019-03-10T01:40:07.147Z,80.70
2019-03-10T01:42:35.389Z,81.00
2019-03-10T01:45:04.034Z,81.10
2019-03-10T01:47:32.237Z,81.10
2019-03-10T01:50:00.489Z,81.20
2019-03-10T01:52:28.712Z,81.60
2019-03-10T01:54:56.967Z,81.70
2019-03-10T01:57:25.196Z,81.60
2019-03-10T01:59:53.454Z,81.80
2019-03-10T02:02:25.652Z,81.80
2019-03-10T02:04:51.662Z,82.00
2019-03-10T02:07:19.889Z,82.10
2019-03-10T02:09:48.148Z,82.10
2019-03-10T02:12:16.359Z,82.10
2019-03-10T02:14:44.606Z,82.30
2019-03-10T02:17:12.835Z,82.20
2019-03-10T02:19:41.098Z,82.50
2019-03-10T02:22:09.355Z,82.10
2019-03-10T02:24:37.566Z,82.30
2019-03-10T02:27:05.818Z,82.50
2019-03-10T02:29:34.129Z,82.60
2019-03-10T02:32:02.377Z,82.70
2019-03-10T02:34:30.638Z,82.80
2019-03-10T02:36:58.878Z,82.70
2019-03-10T02:39:27.122Z,82.70
2019-03-10T02:41:55.367Z,82.70
2019-03-10T02:44:23.598Z,82.60
2019-03-10T02:46:51.854Z,82.70
2019-03-10T02:49:20.088Z,82.80
2019-03-10T02:51:48.430Z,82.10
2019-03-10T02:54:16.671Z,82.00
2019-03-10T02:56:44.906Z,81.90
2019-03-10T02:59:13.152Z,81.70
2019-03-10T03:01:41.417Z,81.70
2019-03-10T03:04:09.642Z,81.60
2019-03-10T03:06:37.875Z,81.40
2019-03-10T03:09:06.191Z,81.70
2019-03-10T03:11:34.402Z,81.60
2019-03-10T03:14:02.691Z,81.70
2019-03-10T03:16:30.961Z,81.70
2019-03-10T03:18:59.230Z,81.70
2019-03-10T03:21:41.823Z,81.80
2019-03-10T03:23:57.415Z,82.30
2019-03-10T03:26:25.665Z,83.90
2019-03-10T03:28:53.942Z,83.80
2019-03-10T03:31:22.162Z,84.00
2019-03-10T03:33:50.410Z,85.70
2019-03-10T03:36:24.822Z,84.40
2019-03-10T03:38:59.229Z,85.40
2019-03-10T03:41:27.481Z,88.00
2019-03-10T03:43:55.710Z,88.40
2019-03-10T03:46:23.962Z,90.50
2019-03-10T03:48:52.175Z,90.00
2019-03-10T03:51:20.431Z,90.10
2019-03-10T03:53:48.665Z,90.80
2019-03-10T03:56:16.938Z,92.00
2019-03-10T03:58:45.167Z,91.30
2019-03-10T04:01:15.028Z,90.60
2019-03-10T04:03:43.279Z,90.50
2019-03-10T04:06:11.548Z,90.00
2019-03-10T04:08:39.764Z,90.10
2019-03-10T04:11:08.019Z,89.90
2019-03-10T04:13:36.331Z,90.00
2019-03-10T04:16:04.551Z,93.90
2019-03-10T04:18:32.881Z,93.10
2019-03-10T04:21:01.197Z,93.10
2019-03-10T04:23:29.538Z,92.50
2019-03-10T04:25:57.753Z,96.70
2019-03-10T04:28:25.979Z,97.60
2019-03-10T04:30:54.231Z,97.70
2019-03-10T04:33:22.452Z,97.00
2019-03-10T04:35:50.669Z,99.40
2019-03-10T04:38:18.924Z,99.90
2019-03-10T04:40:47.157Z,99.90
2019-03-10T04:43:15.363Z,99.90
2019-03-10T04:45:43.624Z,99.90
2019-03-10T04:48:11.871Z,99.90
2019-03-10T04:50:40.095Z,99.90
2019-03-10T04:53:08.351Z,99.90
2019-03-10T04:55:38.226Z,99.90
2019-03-10T04:58:14.101Z,99.90
2019-03-10T05:00:44.225Z,99.90
2019-03-10T05:03:12.448Z,99.90
2019-03-10T05:05:40.662Z,99.90
2019-03-10T05:08:08.936Z,99.90
2019-03-10T05:10:37.149Z,99.90
2019-03-10T05:13:05.380Z,99.90
2019-03-10T05:15:33.637Z,99.90
2019-03-10T05:18:01.874Z,99.90
2019-03-10T05:20:30.111Z,99.90
2019-03-10T05:23:29.655Z,99.90
2019-03-10T05:25:58.041Z,99.90
2019-03-10T05:28:26.573Z,99.90
2019-03-10T05:30:54.863Z,99.90
2019-03-10T05:33:23.098Z,99.90
2019-03-10T05:35:51.349Z,99.90
2019-03-10T05:38:19.573Z,99.90
2019-03-10T05:40:47.801Z,99.90
2019-03-10T05:43:16.055Z,99.90
2019-03-10T05:45:44.268Z,99.90
2019-03-10T05:48:12.524Z,99.90
2019-03-10T05:50:40.739Z,99.90
2019-03-10T05:53:08.965Z,99.90
2019-03-10T05:55:37.208Z,99.90
2019-03-10T05:58:05.474Z,99.90
2019-03-10T06:00:42.245Z,99.90
2019-03-10T06:03:03.654Z,99.90
2019-03-10T06:05:31.892Z,99.90
2019-03-10T06:08:00.131Z,99.90
2019-03-10T06:10:28.370Z,99.80
2019-03-10T06:12:56.612Z,99.70
2019-03-10T06:15:24.839Z,98.90
2019-03-10T06:17:53.101Z,98.80
2019-03-10T06:20:21.338Z,98.00
2019-03-10T06:22:49.575Z,98.60
2019-03-10T06:25:17.822Z,99.40
2019-03-10T06:27:46.033Z,99.90
2019-03-10T06:30:14.255Z,99.90
2019-03-10T06:32:42.486Z,99.90
2019-03-10T06:35:10.743Z,99.90
2019-03-10T06:37:39.124Z,99.90
2019-03-10T06:40:08.115Z,99.90
2019-03-10T06:42:36.378Z,99.90
2019-03-10T06:45:05.777Z,99.90
2019-03-10T06:47:33.991Z,99.90
2019-03-10T06:50:02.213Z,99.90
2019-03-10T06:52:30.472Z,99.90
2019-03-10T06:54:58.701Z,99.90
2019-03-10T06:57:26.920Z,99.90
2019-03-10T06:59:55.159Z,99.90
2019-03-10T07:02:23.461Z,99.90
2019-03-10T07:04:51.710Z,99.90
2019-03-10T07:07:19.993Z,99.90
2019-03-10T07:09:48.272Z,99.90
2019-03-10T07:12:16.499Z,99.90
2019-03-10T07:14:44.734Z,99.90
2019-03-10T07:17:12.986Z,99.90
2019-03-10T07:19:41.213Z,99.90
2019-03-10T07:22:09.446Z,99.90
2019-03-10T07:24:37.688Z,99.90
2019-03-10T07:27:05.952Z,99.90
2019-03-10T07:29:38.786Z,99.90
2019-03-10T07:32:11.394Z,99.90
2019-03-10T07:34:47.339Z,99.90
2019-03-10T07:37:17.214Z,99.90
2019-03-10T07:40:02.228Z,99.90
2019-03-10T07:42:37.800Z,99.90
2019-03-10T07:48:13.839Z,99.90
2019-03-10T07:50:59.944Z,99.90
2019-03-10T07:53:29.839Z,99.90
2019-03-10T07:56:18.037Z,99.90
2019-03-10T07:58:47.904Z,99.90
2019-03-10T08:01:17.781Z,99.90
2019-03-10T08:03:56.715Z,99.90
2019-03-10T08:06:26.575Z,99.90
2019-03-10T08:09:00.496Z,99.90
2019-03-10T08:11:30.642Z,99.90
2019-03-10T08:14:00.498Z,99.90
2019-03-10T08:16:30.359Z,99.90
2019-03-10T08:19:00.251Z,99.90
2019-03-10T08:21:44.964Z,99.90
2019-03-10T08:24:20.826Z,99.90
2019-03-10T08:26:56.270Z,99.90
2019-03-10T08:29:28.881Z,99.90
2019-03-10T08:32:04.551Z,99.90
2019-03-10T08:34:37.390Z,99.90
2019-03-10T08:37:07.256Z,99.90
2019-03-10T08:39:46.382Z,99.90
2019-03-10T08:42:20.303Z,99.90
2019-03-10T08:44:50.787Z,99.90
2019-03-10T08:47:29.689Z,99.90
2019-03-10T08:50:02.284Z,99.90
2019-03-10T08:52:38.190Z,99.90
2019-03-10T08:55:09.520Z,99.90
2019-03-10T08:57:39.388Z,99.90
2019-03-10T09:00:17.125Z,99.90
2019-03-10T09:02:52.973Z,99.90
2019-03-10T09:05:25.623Z,99.90
2019-03-10T09:08:13.870Z,99.90
2019-03-10T09:10:46.705Z,99.90
2019-03-10T09:13:19.247Z,99.90
2019-03-10T09:15:54.855Z,99.90
2019-03-10T09:18:30.404Z,99.90
2019-03-10T09:21:31.742Z,99.90
2019-03-10T09:24:04.431Z,99.90
2019-03-10T09:26:46.517Z,99.90
2019-03-10T09:29:22.183Z,99.90
2019-03-10T09:31:55.029Z,99.90
2019-03-10T09:34:24.956Z,99.90
2019-03-10T09:37:13.236Z,99.90
2019-03-10T09:39:55.052Z,99.90
2019-03-10T09:42:25.141Z,99.90
2019-03-10T09:44:55.052Z,99.90
2019-03-10T09:47:37.131Z,99.90
2019-03-10T09:50:21.941Z,99.90
2019-03-10T09:52:54.552Z,99.90
2019-03-10T09:55:33.412Z,99.90
2019-03-10T09:58:03.305Z,99.90
2019-03-10T10:00:45.451Z,99.90
2019-03-10T10:03:15.331Z,99.90
2019-03-10T10:05:45.188Z,99.90
2019-03-10T10:08:27.043Z,99.90
2019-03-10T10:10:56.913Z,99.90
2019-03-10T10:13:38.834Z,99.90
2019-03-10T10:16:08.695Z,99.90
2019-03-10T10:18:50.553Z,99.90
2019-03-10T10:21:35.524Z,99.90
2019-03-10T10:24:08.325Z,99.90
2019-03-10T10:26:40.868Z,99.90
2019-03-10T10:29:27.300Z,99.90
2019-03-10T10:32:00.311Z,99.90
2019-03-10T10:34:33.168Z,99.90
2019-03-10T10:37:09.014Z,99.90
2019-03-10T10:39:41.629Z,99.90
2019-03-10T10:42:11.507Z,99.90
2019-03-10T10:44:47.405Z,99.90
2019-03-10T10:47:26.012Z,99.90
2019-03-10T10:50:07.978Z,99.90
2019-03-10T10:52:40.533Z,99.90
2019-03-10T10:55:22.429Z,99.90
2019-03-10T10:58:05.569Z,99.90
2019-03-10T11:00:35.741Z,99.90
2019-03-10T11:03:08.553Z,99.90
2019-03-10T11:05:40.882Z,99.90
2019-03-10T11:08:10.759Z,99.90
2019-03-10T11:10:40.627Z,99.90
2019-03-10T11:13:28.784Z,99.90
2019-03-10T11:15:58.651Z,99.90
2019-03-10T11:18:28.544Z,99.90
2019-03-10T11:20:58.428Z,99.90
2019-03-10T11:23:34.234Z,99.90
2019-03-10T11:26:08.591Z,99.90
2019-03-10T11:28:41.147Z,99.90
2019-03-10T11:31:16.783Z,99.90
2019-03-10T11:33:49.580Z,99.90
2019-03-10T11:36:19.468Z,99.90
2019-03-10T11:39:05.580Z,99.90
2019-03-10T11:41:53.742Z,99.00
2019-03-10T11:44:23.698Z,99.90
2019-03-10T11:47:08.907Z,97.50
2019-03-10T11:49:54.986Z,97.50
2019-03-10T11:52:34.177Z,95.40
2019-03-10T11:55:04.096Z,96.90
2019-03-10T11:57:40.106Z,96.40
2019-03-10T12:00:13.504Z,93.80
2019-03-10T12:02:46.292Z,95.10
2019-03-10T12:05:18.572Z,96.00
2019-03-10T12:07:48.447Z,95.60
2019-03-10T12:10:16.713Z,95.20
2019-03-10T12:12:45.013Z,94.40
2019-03-10T12:15:13.812Z,93.60
2019-03-10T12:17:42.043Z,91.40
2019-03-10T12:20:12.313Z,92.50
2019-03-10T12:22:40.559Z,92.60
2019-03-10T12:25:11.705Z,92.80
2019-03-10T12:27:39.933Z,93.20
2019-03-10T12:30:13.292Z,90.70
2019-03-10T12:32:41.520Z,87.90
2019-03-10T12:35:09.739Z,82.60
2019-03-10T12:37:37.994Z,79.90
2019-03-10T12:40:10.886Z,72.40
2019-03-10T12:42:39.212Z,70.80
2019-03-10T12:45:09.187Z,69.30
2019-03-10T12:47:37.454Z,68.30
2019-03-10T12:50:10.745Z,67.20
2019-03-10T12:52:39.011Z,67.30
2019-03-10T12:55:08.873Z,68.50
2019-03-10T12:57:37.119Z,68.30
2019-03-10T13:00:13.376Z,65.60
2019-03-10T13:02:41.258Z,66.00
2019-03-10T13:05:10.028Z,67.90
2019-03-10T13:07:38.315Z,63.50
2019-03-10T13:10:06.541Z,64.40
2019-03-10T13:12:34.779Z,63.90
2019-03-10T13:15:03.038Z,60.80
2019-03-10T13:17:31.252Z,57.20
2019-03-10T13:19:59.534Z,57.30
2019-03-10T13:22:27.782Z,53.30
2019-03-10T13:24:56.027Z,51.40
2019-03-10T13:27:24.273Z,52.80
2019-03-10T13:29:52.497Z,54.10
2019-03-10T13:32:20.756Z,52.20
2019-03-10T13:34:49.017Z,50.00
2019-03-10T13:37:17.319Z,50.30
2019-03-10T13:39:45.590Z,52.10
2019-03-10T13:42:13.817Z,49.90
2019-03-10T13:44:42.063Z,51.30
2019-03-10T13:47:10.324Z,50.60
2019-03-10T13:49:38.580Z,48.00
2019-03-10T13:52:06.805Z,45.80
2019-03-10T13:54:35.068Z,48.90
2019-03-10T13:57:03.382Z,47.90
2019-03-10T13:59:31.638Z,47.40
2019-03-10T14:01:59.864Z,46.80
2019-03-10T14:04:28.108Z,45.50
2019-03-10T14:06:56.361Z,43.70
2019-03-10T14:09:24.697Z,45.10
2019-03-10T14:11:52.934Z,46.50
2019-03-10T14:14:21.188Z,47.50
2019-03-10T14:16:49.408Z,46.70
2019-03-10T14:19:17.641Z,43.10
2019-03-10T14:21:45.914Z,44.40
2019-03-10T14:24:14.163Z,40.80
2019-03-10T14:26:42.407Z,43.70
2019-03-10T14:29:10.645Z,41.90
2019-03-10T14:31:38.886Z,40.00
2019-03-10T14:34:07.166Z,38.70
2019-03-10T14:36:35.383Z,39.40
2019-03-10T14:39:04.861Z,42.60
2019-03-10T14:41:33.106Z,41.40
2019-03-10T14:44:01.370Z,42.00
2019-03-10T14:46:29.665Z,46.80
2019-03-10T14:48:57.911Z,47.50
2019-03-10T14:51:26.142Z,51.40
2019-03-10T14:53:54.385Z,52.70
2019-03-10T14:56:22.626Z,54.70
2019-03-10T14:58:50.881Z,56.20
2019-03-10T15:01:19.095Z,55.60
2019-03-10T15:03:47.366Z,56.60
2019-03-10T15:06:15.591Z,56.70
2019-03-10T15:08:46.218Z,56.00
2019-03-10T15:11:13.797Z,54.80
2019-03-10T15:13:42.124Z,54.20
2019-03-10T15:16:10.350Z,49.50
2019-03-10T15:18:38.589Z,46.10
2019-03-10T15:21:06.839Z,42.90
2019-03-10T15:23:35.087Z,39.50
2019-03-10T15:26:03.321Z,40.40
2019-03-10T15:28:31.564Z,38.60
2019-03-10T15:30:59.830Z,38.10
2019-03-10T15:33:28.080Z,37.70
2019-03-10T15:35:56.299Z,37.70
2019-03-10T15:38:24.572Z,40.90
2019-03-10T15:40:52.833Z,42.70
2019-03-10T15:43:21.076Z,43.40
2019-03-10T15:45:49.306Z,44.10
2019-03-10T15:48:17.540Z,44.50
2019-03-10T15:50:45.792Z,44.70
2019-03-10T15:53:14.045Z,45.00
2019-03-10T15:55:42.461Z,43.20
2019-03-10T15:58:10.710Z,44.20
2019-03-10T16:00:38.951Z,44.90
2019-03-10T16:03:07.213Z,48.10
2019-03-10T16:05:35.462Z,50.50
2019-03-10T16:08:03.758Z,52.00
2019-03-10T16:10:32.008Z,54.40
2019-03-10T16:13:00.278Z,54.50
2019-03-10T16:15:32.000Z,56.70
2019-03-10T16:18:00.228Z,56.40
2019-03-10T16:20:28.462Z,57.10
2019-03-10T16:22:56.716Z,58.00
2019-03-10T16:25:24.994Z,59.10
2019-03-10T16:27:53.190Z,56.70
2019-03-10T16:30:22.695Z,54.20
2019-03-10T16:32:50.934Z,53.40
2019-03-10T16:35:19.151Z,51.60
2019-03-10T16:37:47.392Z,52.90
2019-03-10T16:40:17.726Z,52.90
2019-03-10T16:42:45.989Z,50.80
2019-03-10T16:45:18.624Z,51.70
2019-03-10T16:47:46.843Z,51.70
2019-03-10T16:50:19.760Z,51.90
2019-03-10T16:52:47.986Z,50.50
2019-03-10T16:55:16.251Z,51.40
2019-03-10T16:57:44.468Z,50.50
2019-03-10T17:00:12.888Z,48.50
2019-03-10T17:02:43.076Z,49.20
2019-03-10T17:05:15.510Z,49.70
2019-03-10T17:07:43.292Z,49.80
2019-03-10T17:10:20.057Z,51.00
2019-03-10T17:12:48.320Z,49.40
2019-03-10T17:15:18.895Z,49.50
2019-03-10T17:17:47.211Z,49.80
2019-03-10T17:20:16.869Z,50.20
2019-03-10T17:22:45.172Z,49.20
2019-03-10T17:25:14.789Z,49.70
2019-03-10T17:27:43.114Z,50.00
2019-03-10T17:30:19.095Z,49.60
2019-03-10T17:32:47.379Z,48.20
2019-03-10T17:35:16.690Z,47.60
2019-03-10T17:37:44.907Z,48.50
2019-03-10T17:40:17.728Z,49.30
2019-03-10T17:42:46.097Z,51.30
2019-03-10T17:45:17.563Z,51.10
2019-03-10T17:47:45.832Z,49.70
2019-03-10T17:50:15.200Z,51.00
2019-03-10T17:52:43.612Z,51.00
2019-03-10T17:55:16.553Z,51.50
2019-03-10T17:57:44.784Z,52.60
2019-03-10T18:00:18.649Z,52.60
2019-03-10T18:02:46.901Z,53.50
2019-03-10T18:05:15.203Z,53.40
2019-03-10T18:07:44.289Z,53.00
2019-03-10T18:12:51.076Z,53.90
2019-03-10T18:15:19.327Z,55.30
2019-03-10T18:17:47.584Z,55.90
2019-03-10T18:20:20.243Z,56.10
2019-03-10T18:22:48.533Z,57.80
2019-03-10T18:25:16.821Z,58.80
2019-03-10T18:27:45.054Z,63.40
2019-03-10T18:30:20.199Z,65.40
2019-03-10T18:32:48.412Z,66.60
2019-03-10T18:35:18.624Z,69.60
2019-03-10T18:37:47.067Z,71.30
2019-03-10T18:40:23.718Z,72.20
2019-03-10T18:42:51.938Z,73.40
2019-03-10T18:45:20.525Z,79.80
2019-03-10T18:47:48.793Z,90.50
2019-03-10T18:50:23.176Z,93.00
2019-03-10T18:52:51.398Z,94.60
2019-03-10T18:55:20.505Z,94.30
2019-03-10T18:57:51.410Z,92.80
2019-03-10T19:00:24.713Z,92.10
2019-03-10T19:02:53.117Z,91.40
2019-03-10T19:05:21.357Z,91.40
2019-03-10T19:07:49.575Z,90.60
2019-03-10T19:10:17.809Z,90.80
2019-03-10T19:12:46.071Z,90.40
2019-03-10T19:15:25.628Z,90.60
2019-03-10T19:17:53.941Z,90.30
2019-03-10T19:20:22.172Z,90.20
2019-03-10T19:22:50.401Z,90.30
2019-03-10T19:25:18.670Z,90.50
2019-03-10T19:27:46.926Z,90.50
2019-03-10T19:30:19.768Z,90.40
2019-03-10T19:32:48.001Z,90.20
2019-03-10T19:35:16.253Z,90.20
2019-03-10T19:37:44.643Z,90.60
2019-03-10T19:40:20.640Z,90.00
2019-03-10T19:42:48.983Z,89.80
2019-03-10T19:45:19.402Z,88.50
2019-03-10T19:47:47.628Z,87.70
2019-03-10T19:50:22.162Z,85.70
2019-03-10T19:52:50.391Z,83.40
2019-03-10T19:55:18.631Z,80.80
2019-03-10T19:57:46.884Z,77.10
2019-03-10T20:00:19.156Z,77.00
2019-03-10T20:02:47.395Z,76.00
2019-03-10T20:05:15.619Z,74.90
2019-03-10T20:07:44.533Z,73.40
2019-03-10T20:10:19.877Z,73.60
2019-03-10T20:12:48.155Z,71.40
2019-03-10T20:15:17.633Z,72.60
2019-03-10T20:17:45.867Z,72.50
2019-03-10T20:20:19.621Z,73.50
2019-03-10T20:22:47.854Z,72.50
2019-03-10T20:25:16.310Z,72.20
2019-03-10T20:27:44.610Z,71.50
2019-03-10T20:30:18.371Z,71.40
2019-03-10T20:32:46.623Z,71.70
2019-03-10T20:35:14.869Z,72.60
2019-03-10T20:37:43.103Z,73.70
2019-03-10T20:40:16.413Z,73.60
2019-03-10T20:42:44.651Z,74.40
2019-03-10T20:45:13.254Z,76.00
2019-03-10T20:47:41.579Z,75.60
2019-03-10T20:50:17.760Z,75.80
2019-03-10T20:52:45.327Z,75.70
2019-03-10T20:55:14.193Z,76.00
2019-03-10T20:57:42.529Z,75.10
2019-03-10T21:00:22.282Z,75.70
2019-03-10T21:02:50.535Z,75.60
2019-03-10T21:05:18.928Z,76.30
2019-03-10T21:07:47.176Z,77.30
2019-03-10T21:10:23.086Z,77.00
2019-03-10T21:12:51.354Z,78.00
2019-03-10T21:15:21.781Z,78.80
2019-03-10T21:17:50.091Z,78.10
2019-03-10T21:20:19.422Z,78.30
2019-03-10T21:22:47.683Z,77.80
2019-03-10T21:25:36.976Z,77.50
2019-03-10T21:28:05.239Z,76.80
2019-03-10T21:30:34.283Z,76.40
2019-03-10T21:33:02.567Z,75.90
2019-03-10T21:35:33.099Z,75.10
2019-03-10T21:38:00.745Z,75.00
2019-03-10T21:40:30.536Z,72.90
2019-03-10T21:42:58.781Z,72.80
2019-03-10T21:45:27.029Z,73.20
2019-03-10T21:47:55.267Z,72.70
2019-03-10T21:50:23.533Z,73.50
2019-03-10T21:52:51.761Z,73.10
2019-03-10T21:55:20.001Z,73.70
2019-03-10T21:57:48.244Z,72.90
2019-03-10T22:00:17.635Z,73.80
2019-03-10T22:02:45.877Z,73.60
2019-03-10T22:05:14.931Z,74.70
2019-03-10T22:07:43.257Z,74.40
2019-03-10T22:10:13.358Z,74.50
2019-03-10T22:12:41.596Z,74.80
2019-03-10T22:15:15.673Z,74.80
2019-03-10T22:17:44.615Z,75.40
2019-03-10T22:20:17.553Z,76.10
2019-03-10T22:22:49.073Z,76.30
2019-03-10T22:25:15.976Z,76.40
2019-03-10T22:27:45.677Z,76.80
2019-03-10T22:30:20.606Z,76.10
2019-03-10T22:32:48.865Z,75.70
2019-03-10T22:35:17.182Z,75.50
2019-03-10T22:37:45.431Z,75.70
2019-03-10T22:40:17.309Z,75.30
2019-03-10T22:42:45.558Z,75.80
2019-03-10T22:45:20.392Z,75.20
2019-03-10T22:47:48.649Z,74.70
2019-03-10T22:50:17.058Z,75.00
2019-03-10T22:52:45.343Z,76.50
2019-03-10T22:55:14.433Z,75.70
2019-03-10T22:57:42.667Z,76.00
2019-03-10T23:00:21.917Z,76.20
2019-03-10T23:02:50.139Z,76.20
2019-03-10T23:05:18.402Z,76.40
2019-03-10T23:07:46.620Z,77.80
2019-03-10T23:10:15.528Z,77.30
2019-03-10T23:12:43.782Z,77.10
2019-03-10T23:15:12.917Z,77.20
2019-03-10T23:17:41.164Z,77.80
2019-03-10T23:20:14.287Z,78.50
2019-03-10T23:22:42.540Z,78.40
2019-03-10T23:25:10.768Z,78.30
2019-03-10T23:27:39.050Z,78.70
2019-03-10T23:30:10.735Z,79.00
2019-03-10T23:32:39.046Z,79.20
2019-03-10T23:35:07.381Z,79.80
2019-03-10T23:37:36.005Z,79.90
2019-03-10T23:40:07.372Z,80.60
2019-03-10T23:42:35.630Z,80.10
2019-03-10T23:45:05.735Z,79.80
2019-03-10T23:47:35.097Z,78.70
2019-03-10T23:50:04.732Z,78.00
2019-03-10T23:52:32.954Z,75.40
2019-03-10T23:55:01.208Z,74.40
2019-03-10T23:57:29.430Z,73.80
2019-03-10T23:59:57.650Z,74.30
